createdAt,value
2019-05-01T00:00:51.369Z,30.30
2019-05-01T00:03:22.699Z,23.90
2019-05-01T00:06:00.480Z,25.40
2019-05-01T00:08:27.305Z,26.87
2019-05-01T00:10:54.238Z,23.80
2019-05-01T00:13:21.176Z,24.60
2019-05-01T00:15:49.695Z,24.63
2019-05-01T00:18:16.634Z,26.33
2019-05-01T00:20:43.567Z,23.90
2019-05-01T00:23:10.423Z,25.75
2019-05-01T00:25:37.255Z,30.12
2019-05-01T00:28:04.863Z,27.97
2019-05-01T00:30:34.973Z,23.50
2019-05-01T00:33:01.778Z,23.12
2019-05-01T00:35:28.737Z,27.03
2019-05-01T00:37:55.724Z,23.00
2019-05-01T00:40:22.691Z,23.20
2019-05-01T00:42:49.546Z,24.83
2019-05-01T00:45:16.499Z,24.87
2019-05-01T00:47:43.410Z,24.07
2019-05-01T00:50:10.367Z,25.23
2019-05-01T00:52:37.191Z,21.17
2019-05-01T00:55:35.872Z,25.47
2019-05-01T00:58:21.151Z,17.37
2019-05-01T01:01:06.576Z,24.23
2019-05-01T01:03:34.185Z,21.63
2019-05-01T01:06:01.575Z,23.83
2019-05-01T01:08:28.519Z,22.63
2019-05-01T01:10:55.328Z,25.83
2019-05-01T01:13:22.163Z,22.63
2019-05-01T01:15:48.975Z,24.20
2019-05-01T01:18:15.922Z,26.87
2019-05-01T01:20:42.853Z,22.83
2019-05-01T01:23:09.791Z,22.53
2019-05-01T01:25:37.726Z,24.50
2019-05-01T01:28:04.587Z,26.80
2019-05-01T01:30:31.432Z,26.80
2019-05-01T01:32:58.427Z,30.20
2019-05-01T01:35:25.256Z,36.20
2019-05-01T01:37:52.090Z,31.73
2019-05-01T01:40:18.928Z,32.23
2019-05-01T01:42:47.662Z,43.90
2019-05-01T01:48:09.853Z,42.03
2019-05-01T01:50:38.398Z,25.90
2019-05-01T01:53:05.316Z,25.57
2019-05-01T01:55:32.251Z,24.73
2019-05-01T01:57:59.065Z,23.33
2019-05-01T02:00:27.803Z,27.33
2019-05-01T02:02:56.558Z,17.07
2019-05-01T02:05:25.279Z,23.38
2019-05-01T02:07:52.223Z,14.03
2019-05-01T02:10:19.191Z,20.73
2019-05-01T02:12:47.426Z,18.97
2019-05-01T02:15:14.274Z,23.97
2019-05-01T02:17:41.223Z,20.73
2019-05-01T02:20:08.143Z,24.37
2019-05-01T02:22:35.088Z,27.30
2019-05-01T02:25:02.302Z,19.33
2019-05-01T02:27:43.125Z,31.17
2019-05-01T02:30:11.944Z,24.13
2019-05-01T02:32:38.903Z,29.32
2019-05-01T02:35:05.904Z,29.90
2019-05-01T02:37:32.733Z,36.47
2019-05-01T02:39:59.687Z,36.80
2019-05-01T02:42:27.303Z,34.07
2019-05-01T02:44:54.126Z,34.50
2019-05-01T02:47:24.473Z,31.20
2019-05-01T02:49:53.875Z,39.17
2019-05-01T02:52:22.184Z,32.63
2019-05-01T02:54:49.230Z,34.10
2019-05-01T02:57:20.480Z,30.07
2019-05-01T02:59:50.673Z,28.17
2019-05-01T03:02:18.003Z,29.87
2019-05-01T03:04:45.061Z,24.37
2019-05-01T03:07:11.964Z,28.37
2019-05-01T03:09:38.824Z,22.97
2019-05-01T03:12:05.662Z,23.43
2019-05-01T03:14:34.415Z,21.17
2019-05-01T03:19:57.669Z,22.53
2019-05-01T03:22:27.419Z,20.13
2019-05-01T03:24:54.734Z,18.60
2019-05-01T03:27:21.722Z,22.20
2019-05-01T03:29:48.638Z,27.40
2019-05-01T03:32:19.236Z,20.40
2019-05-01T03:34:51.535Z,26.87
2019-05-01T03:37:12.947Z,24.50
2019-05-01T03:39:59.597Z,20.27
2019-05-01T03:42:27.635Z,21.97
2019-05-01T03:44:54.465Z,20.70
2019-05-01T03:47:21.418Z,26.37
2019-05-01T03:49:48.357Z,26.23
2019-05-01T03:52:15.313Z,24.80
2019-05-01T03:54:42.256Z,37.43
2019-05-01T03:57:12.622Z,24.10
2019-05-01T03:59:37.837Z,27.65
2019-05-01T04:02:32.149Z,21.90
2019-05-01T04:07:10.941Z,23.70
2019-05-01T04:09:37.969Z,22.77
2019-05-01T04:12:04.801Z,24.60
2019-05-01T04:14:31.749Z,19.02
2019-05-01T04:17:01.582Z,24.35
2019-05-01T04:19:28.527Z,31.93
2019-05-01T04:22:00.228Z,28.02
2019-05-01T04:24:27.168Z,33.53
2019-05-01T04:26:54.022Z,41.77
2019-05-01T04:34:47.729Z,42.00
2019-05-01T04:37:27.451Z,40.03
2019-05-01T04:39:54.369Z,40.28
2019-05-01T04:42:21.328Z,39.75
2019-05-01T04:44:48.240Z,39.15
2019-05-01T04:47:15.103Z,40.20
2019-05-01T04:49:42.024Z,38.48
2019-05-01T04:52:09.023Z,38.02
2019-05-01T04:54:35.936Z,48.90
2019-05-01T04:57:02.883Z,62.25
2019-05-01T04:59:29.714Z,55.50
2019-05-01T05:04:38.165Z,51.50
2019-05-01T05:07:05.093Z,52.85
2019-05-01T05:09:39.358Z,48.58
2019-05-01T05:12:08.705Z,31.42
2019-05-01T05:14:52.599Z,30.70
2019-05-01T05:17:24.039Z,28.67
2019-05-01T05:19:50.967Z,25.60
2019-05-01T05:22:17.928Z,25.25
2019-05-01T05:24:45.158Z,19.35
2019-05-01T05:27:12.207Z,17.92
2019-05-01T05:29:39.044Z,24.00
2019-05-01T05:32:05.957Z,22.73
2019-05-01T05:34:32.900Z,20.85
2019-05-01T05:37:01.619Z,18.75
2019-05-01T05:39:33.111Z,16.10
2019-05-01T05:42:00.037Z,17.12
2019-05-01T05:44:27.004Z,16.25
2019-05-01T05:46:53.911Z,15.08
2019-05-01T05:49:20.854Z,17.35
2019-05-01T05:51:58.526Z,14.28
2019-05-01T05:54:43.498Z,19.48
2019-05-01T05:57:30.348Z,18.77
2019-05-01T06:00:09.365Z,21.52
2019-05-01T06:02:54.731Z,14.05
2019-05-01T06:05:36.067Z,14.80
2019-05-01T06:08:10.487Z,14.60
2019-05-01T06:13:56.878Z,18.20
2019-05-01T06:16:41.259Z,23.30
2019-05-01T06:19:26.553Z,19.48
2019-05-01T06:22:05.079Z,16.35
2019-05-01T06:24:35.877Z,17.12
2019-05-01T06:27:02.987Z,19.70
2019-05-01T06:29:30.935Z,16.55
2019-05-01T06:31:59.819Z,18.37
2019-05-01T06:34:28.621Z,17.97
2019-05-01T06:39:23.607Z,15.72
2019-05-01T06:41:50.732Z,17.15
2019-05-01T06:44:23.611Z,14.58
2019-05-01T06:46:58.245Z,13.65
2019-05-01T06:49:40.494Z,14.75
2019-05-01T06:52:10.130Z,13.75
2019-05-01T06:54:37.051Z,13.83
2019-05-01T06:57:04.002Z,15.45
2019-05-01T06:59:31.863Z,14.43
2019-05-01T07:02:00.277Z,21.15
2019-05-01T07:04:31.871Z,15.43
2019-05-01T07:06:56.437Z,14.28
2019-05-01T07:09:28.247Z,14.18
2019-05-01T07:11:52.932Z,20.48
2019-05-01T07:14:20.802Z,12.53
2019-05-01T07:16:47.719Z,13.00
2019-05-01T07:19:15.670Z,15.38
2019-05-01T07:21:42.597Z,11.78
2019-05-01T07:24:09.604Z,13.43
2019-05-01T07:26:36.518Z,19.17
2019-05-01T07:29:06.145Z,12.40
2019-05-01T07:31:34.019Z,11.68
2019-05-01T07:34:00.871Z,17.23
2019-05-01T07:36:27.804Z,16.27
2019-05-01T07:38:54.758Z,14.23
2019-05-01T07:41:21.599Z,9.30
2019-05-01T07:43:59.642Z,12.03
2019-05-01T07:46:39.491Z,11.55
2019-05-01T07:49:06.427Z,11.43
2019-05-01T07:51:33.355Z,13.53
2019-05-01T07:54:04.136Z,19.05
2019-05-01T07:56:30.058Z,12.65
2019-05-01T07:58:57.274Z,12.85
2019-05-01T08:01:39.375Z,7.40
2019-05-01T08:04:06.286Z,13.15
2019-05-01T08:06:33.147Z,10.23
2019-05-01T08:08:59.967Z,10.18
2019-05-01T08:11:26.802Z,15.10
2019-05-01T08:13:53.752Z,11.50
2019-05-01T08:16:20.607Z,10.82
2019-05-01T08:18:51.962Z,14.95
2019-05-01T08:21:26.195Z,10.65
2019-05-01T08:23:52.266Z,9.00
2019-05-01T08:26:19.526Z,13.65
2019-05-01T08:28:48.295Z,10.75
2019-05-01T08:31:17.030Z,11.85
2019-05-01T08:34:03.877Z,11.85
2019-05-01T08:36:30.815Z,9.95
2019-05-01T08:38:57.769Z,11.05
2019-05-01T08:41:27.162Z,10.55
2019-05-01T08:43:55.919Z,11.75
2019-05-01T08:46:41.635Z,13.00
2019-05-01T08:49:17.195Z,8.43
2019-05-01T08:51:44.183Z,12.37
2019-05-01T08:54:11.005Z,15.23
2019-05-01T08:56:37.943Z,14.70
2019-05-01T08:59:04.763Z,10.13
2019-05-01T09:01:31.695Z,7.95
2019-05-01T09:03:58.534Z,11.35
2019-05-01T09:06:34.619Z,11.90
2019-05-01T09:08:54.119Z,14.53
2019-05-01T09:11:20.979Z,7.35
2019-05-01T09:13:47.895Z,8.80
2019-05-01T09:16:14.841Z,9.30
2019-05-01T09:18:41.812Z,8.43
2019-05-01T09:21:08.763Z,8.60
2019-05-01T09:23:35.613Z,9.20
2019-05-01T09:26:14.577Z,7.08
2019-05-01T09:28:39.803Z,12.07
2019-05-01T09:31:08.207Z,12.05
2019-05-01T09:33:35.026Z,8.35
2019-05-01T09:36:01.966Z,9.25
2019-05-01T09:38:30.008Z,8.53
2019-05-01T09:40:56.952Z,8.20
2019-05-01T09:43:25.170Z,10.32
2019-05-01T09:45:52.160Z,8.70
2019-05-01T09:48:19.050Z,14.60
2019-05-01T09:50:47.795Z,10.38
2019-05-01T09:53:16.571Z,9.13
2019-05-01T09:55:48.343Z,10.40
2019-05-01T09:58:15.219Z,10.30
2019-05-01T10:00:42.750Z,10.98
2019-05-01T10:03:13.157Z,5.75
2019-05-01T10:05:43.005Z,9.15
2019-05-01T10:08:07.107Z,9.05
2019-05-01T10:10:36.825Z,7.08
2019-05-01T10:13:02.752Z,25.62
2019-05-01T10:15:29.686Z,6.62
2019-05-01T10:17:56.623Z,8.20
2019-05-01T10:20:23.452Z,5.05
2019-05-01T10:22:50.263Z,8.95
2019-05-01T10:25:17.159Z,9.98
2019-05-01T10:27:48.409Z,12.58
2019-05-01T10:30:39.708Z,6.97
2019-05-01T10:33:09.487Z,9.33
2019-05-01T10:35:42.975Z,5.25
2019-05-01T10:38:10.781Z,8.30
2019-05-01T10:40:37.796Z,9.30
2019-05-01T10:43:04.763Z,8.25
2019-05-01T10:45:33.547Z,9.58
2019-05-01T10:48:00.407Z,8.60
2019-05-01T10:50:27.268Z,12.45
2019-05-01T10:52:54.187Z,8.63
2019-05-01T10:55:21.206Z,11.57
2019-05-01T10:57:48.104Z,10.68
2019-05-01T11:00:15.048Z,12.70
2019-05-01T11:02:41.963Z,9.43
2019-05-01T11:05:08.899Z,9.85
2019-05-01T11:07:35.929Z,11.60
2019-05-01T11:10:05.815Z,12.45
2019-05-01T11:12:52.565Z,9.05
2019-05-01T11:15:19.602Z,9.60
2019-05-01T11:17:46.531Z,13.38
2019-05-01T11:20:13.361Z,10.80
2019-05-01T11:22:41.582Z,14.87
2019-05-01T11:25:10.035Z,17.87
2019-05-01T11:27:36.995Z,11.10
2019-05-01T11:30:06.715Z,19.12
2019-05-01T11:32:35.451Z,15.95
2019-05-01T11:35:23.057Z,10.72
2019-05-01T11:38:09.169Z,11.85
2019-05-01T11:40:40.539Z,11.93
2019-05-01T11:43:07.475Z,9.00
2019-05-01T11:45:34.395Z,9.88
2019-05-01T11:48:01.372Z,10.00
2019-05-01T11:50:28.335Z,11.15
2019-05-01T11:52:55.177Z,10.65
2019-05-01T11:55:21.982Z,11.00
2019-05-01T11:57:48.823Z,17.52
2019-05-01T12:00:17.447Z,7.72
2019-05-01T12:02:44.282Z,17.07
2019-05-01T12:05:11.230Z,9.80
2019-05-01T12:07:38.095Z,12.75
2019-05-01T12:10:05.047Z,12.88
2019-05-01T12:12:45.087Z,11.10
2019-05-01T12:15:12.019Z,12.50
2019-05-01T12:17:43.758Z,10.35
2019-05-01T12:20:11.204Z,12.43
2019-05-01T12:22:38.119Z,11.75
2019-05-01T12:25:05.968Z,12.58
2019-05-01T12:27:52.736Z,13.30
2019-05-01T12:30:19.666Z,12.30
2019-05-01T12:32:46.608Z,12.95
2019-05-01T12:35:13.553Z,10.82
2019-05-01T12:37:42.268Z,16.60
2019-05-01T12:40:11.477Z,11.12
2019-05-01T12:42:38.419Z,16.17
2019-05-01T12:45:07.719Z,12.80
2019-05-01T12:47:42.371Z,19.20
2019-05-01T12:50:09.315Z,10.85
2019-05-01T12:52:47.065Z,12.43
2019-05-01T12:55:33.007Z,10.98
2019-05-01T12:57:59.951Z,10.82
2019-05-01T13:00:46.395Z,8.68
2019-05-01T13:03:13.234Z,8.93
2019-05-01T13:05:40.666Z,13.30
2019-05-01T13:08:07.584Z,11.03
2019-05-01T13:10:34.747Z,13.45
2019-05-01T13:13:01.850Z,14.47
2019-05-01T13:15:28.707Z,18.15
2019-05-01T13:18:08.703Z,11.35
2019-05-01T13:20:35.652Z,14.43
2019-05-01T13:23:02.724Z,18.10
2019-05-01T13:25:29.961Z,11.28
2019-05-01T13:28:01.474Z,14.23
2019-05-01T13:30:40.427Z,10.68
2019-05-01T13:33:07.413Z,12.18
2019-05-01T13:35:34.760Z,15.18
2019-05-01T13:38:01.704Z,11.78
2019-05-01T13:40:28.850Z,13.62
2019-05-01T13:42:56.082Z,12.78
2019-05-01T13:45:22.951Z,12.30
2019-05-01T13:47:49.870Z,12.35
2019-05-01T13:50:16.711Z,10.48
2019-05-01T13:52:43.644Z,15.15
2019-05-01T13:55:10.599Z,11.55
2019-05-01T13:57:37.580Z,10.50
2019-05-01T14:00:08.736Z,15.20
2019-05-01T14:02:38.934Z,10.85
2019-05-01T14:05:05.893Z,13.85
2019-05-01T14:07:34.608Z,10.15
2019-05-01T14:10:01.519Z,9.63
2019-05-01T14:12:28.557Z,10.40
2019-05-01T14:14:55.471Z,13.18
2019-05-01T14:17:22.316Z,10.45
2019-05-01T14:19:51.039Z,11.45
2019-05-01T14:22:22.733Z,13.93
2019-05-01T14:24:51.451Z,14.63
2019-05-01T14:27:18.390Z,13.43
2019-05-01T14:29:45.314Z,11.65
2019-05-01T14:32:12.296Z,10.35
2019-05-01T14:34:39.082Z,13.15
2019-05-01T14:37:06.004Z,11.90
2019-05-01T14:39:32.827Z,14.38
2019-05-01T14:41:59.754Z,16.70
2019-05-01T14:44:36.544Z,11.18
2019-05-01T14:46:58.009Z,16.52
2019-05-01T14:49:24.823Z,12.95
2019-05-01T14:51:51.784Z,14.78
2019-05-01T14:54:18.711Z,13.20
2019-05-01T14:56:45.625Z,15.68
2019-05-01T14:59:12.459Z,15.08
2019-05-01T15:01:39.379Z,14.90
2019-05-01T15:04:06.468Z,16.80
2019-05-01T15:06:33.300Z,14.15
2019-05-01T15:09:00.244Z,11.70
2019-05-01T15:11:27.290Z,14.73
2019-05-01T15:14:05.819Z,15.93
2019-05-01T15:16:43.594Z,10.85
2019-05-01T15:19:12.346Z,15.43
2019-05-01T15:21:39.160Z,15.68
2019-05-01T15:24:06.003Z,8.53
2019-05-01T15:26:32.927Z,9.05
2019-05-01T15:28:59.920Z,10.63
2019-05-01T15:31:28.135Z,10.15
2019-05-01T15:33:55.083Z,19.98
2019-05-01T15:36:22.029Z,16.25
2019-05-01T15:38:48.867Z,17.62
2019-05-01T15:41:29.561Z,11.08
2019-05-01T15:44:04.082Z,18.98
2019-05-01T15:46:31.752Z,23.83
2019-05-01T15:48:58.937Z,15.60
2019-05-01T15:51:25.767Z,14.18
2019-05-01T15:53:52.683Z,14.50
2019-05-01T15:56:19.655Z,16.90
2019-05-01T15:58:46.467Z,15.23
2019-05-01T16:01:13.407Z,19.60
2019-05-01T16:03:40.325Z,16.52
2019-05-01T16:06:08.440Z,17.57
2019-05-01T16:08:35.518Z,12.35
2019-05-01T16:11:14.335Z,20.45
2019-05-01T16:13:41.263Z,16.85
2019-05-01T16:16:08.191Z,12.43
2019-05-01T16:18:35.220Z,16.42
2019-05-01T16:21:02.065Z,17.57
2019-05-01T16:23:29.007Z,17.48
2019-05-01T16:25:55.918Z,15.90
2019-05-01T16:28:22.850Z,15.68
2019-05-01T16:30:49.799Z,11.85
2019-05-01T16:33:16.760Z,14.75
2019-05-01T16:35:43.683Z,13.43
2019-05-01T16:38:22.662Z,17.05
2019-05-01T16:40:55.706Z,14.50
2019-05-01T16:43:22.669Z,21.20
2019-05-01T16:45:49.595Z,19.50
2019-05-01T16:48:17.911Z,10.53
2019-05-01T16:50:44.970Z,21.02
2019-05-01T16:53:12.002Z,15.32
2019-05-01T16:55:38.943Z,21.27
2019-05-01T16:58:07.712Z,130.40
2019-05-01T17:00:38.146Z,181.43
2019-05-01T17:03:09.635Z,104.03
2019-05-01T17:05:47.259Z,55.85
2019-05-01T17:08:16.055Z,16.23
2019-05-01T17:10:44.793Z,50.88
2019-05-01T17:13:11.731Z,26.45
2019-05-01T17:15:40.459Z,54.93
2019-05-01T17:18:07.400Z,33.40
2019-05-01T17:20:34.227Z,11.90
2019-05-01T17:23:01.078Z,19.40
2019-05-01T17:25:29.519Z,72.72
2019-05-01T17:27:56.747Z,50.58
2019-05-01T17:30:39.568Z,73.25
2019-05-01T17:33:07.374Z,14.90
2019-05-01T17:35:37.015Z,40.25
2019-05-01T17:38:03.172Z,13.55
2019-05-01T17:40:30.222Z,20.08
2019-05-01T17:42:57.035Z,22.87
2019-05-01T17:45:23.987Z,19.60
2019-05-01T17:47:52.671Z,26.05
2019-05-01T17:50:22.340Z,14.98
2019-05-01T17:55:16.836Z,11.95
2019-05-01T17:57:43.667Z,14.43
2019-05-01T18:00:24.740Z,10.40
2019-05-01T18:02:53.502Z,16.07
2019-05-01T18:05:25.247Z,8.95
2019-05-01T18:07:52.207Z,13.13
2019-05-01T18:10:19.063Z,19.25
2019-05-01T18:12:45.898Z,16.97
2019-05-01T18:15:12.835Z,14.28
2019-05-01T18:17:53.296Z,13.28
2019-05-01T18:20:21.254Z,16.82
2019-05-01T18:25:47.055Z,15.25
2019-05-01T18:28:18.300Z,9.73
2019-05-01T18:30:45.216Z,14.28
2019-05-01T18:33:12.159Z,14.55
2019-05-01T18:35:39.078Z,12.93
2019-05-01T18:38:11.596Z,18.17
2019-05-01T18:40:44.611Z,20.37
2019-05-01T18:43:11.534Z,14.07
2019-05-01T18:46:08.203Z,21.82
2019-05-01T18:48:35.478Z,37.08
2019-05-01T18:51:02.399Z,19.75
2019-05-01T18:53:51.009Z,18.77
2019-05-01T18:56:17.807Z,33.17
2019-05-01T18:58:44.748Z,65.83
2019-05-01T19:01:11.681Z,27.22
2019-05-01T19:03:42.370Z,24.52
2019-05-01T19:06:07.287Z,19.40
2019-05-01T19:08:34.203Z,32.48
2019-05-01T19:11:11.809Z,119.53
2019-05-01T19:13:30.492Z,142.62
2019-05-01T19:15:57.417Z,116.57
2019-05-01T19:18:24.238Z,112.95
2019-05-01T19:20:59.222Z,74.35
2019-05-01T19:23:22.089Z,65.32
2019-05-01T19:25:50.271Z,74.87
2019-05-01T19:28:17.966Z,78.35
2019-05-01T19:30:44.894Z,121.92
2019-05-01T19:33:11.823Z,160.40
2019-05-01T19:35:38.787Z,163.92
2019-05-01T19:38:05.803Z,126.27
2019-05-01T19:40:32.796Z,109.70
2019-05-01T19:43:00.139Z,130.15
2019-05-01T19:45:27.563Z,80.87
2019-05-01T19:47:54.516Z,179.70
2019-05-01T19:50:21.662Z,349.58
2019-05-01T19:52:48.695Z,218.80
2019-05-01T19:55:40.013Z,158.37
2019-05-01T19:58:06.637Z,129.87
2019-05-01T20:00:58.344Z,85.12
2019-05-01T20:03:25.286Z,48.10
2019-05-01T20:05:54.255Z,62.00
2019-05-01T20:08:24.496Z,69.72
2019-05-01T20:10:51.478Z,49.27
2019-05-01T20:13:18.432Z,76.70
2019-05-01T20:15:45.357Z,62.50
2019-05-01T20:18:12.201Z,250.30
2019-05-01T20:20:39.210Z,265.52
2019-05-01T20:23:06.139Z,94.87
2019-05-01T20:25:32.983Z,76.17
2019-05-01T20:27:59.914Z,77.47
2019-05-01T20:30:40.142Z,76.90
2019-05-01T20:33:08.421Z,83.87
2019-05-01T20:35:35.726Z,89.52
2019-05-01T20:38:02.632Z,91.32
2019-05-01T20:40:29.683Z,66.90
2019-05-01T20:43:00.904Z,58.42
2019-05-01T20:45:25.486Z,39.08
2019-05-01T20:47:54.322Z,40.43
2019-05-01T20:50:21.229Z,38.20
2019-05-01T20:52:48.151Z,45.05
2019-05-01T20:55:14.968Z,32.93
2019-05-01T20:57:49.125Z,57.25
2019-05-01T21:00:18.636Z,60.98
2019-05-01T21:02:45.574Z,57.08
2019-05-01T21:05:14.299Z,76.42
2019-05-01T21:07:43.043Z,69.90
2019-05-01T21:10:09.987Z,66.83
2019-05-01T21:12:37.128Z,61.37
2019-05-01T21:15:05.297Z,57.27
2019-05-01T21:17:32.264Z,52.98
2019-05-01T21:19:59.091Z,41.85
2019-05-01T21:22:26.057Z,39.92
2019-05-01T21:24:53.357Z,35.70
2019-05-01T21:27:20.678Z,45.08
2019-05-01T21:30:07.656Z,46.70
2019-05-01T21:32:34.599Z,60.58
2019-05-01T21:35:01.539Z,63.75
2019-05-01T21:37:28.586Z,74.27
2019-05-01T21:39:55.524Z,63.65
2019-05-01T21:42:35.167Z,64.90
2019-05-01T21:47:33.476Z,44.23
2019-05-01T21:50:00.511Z,47.03
2019-05-01T21:52:27.339Z,44.55
2019-05-01T21:54:55.510Z,45.73
2019-05-01T21:57:24.501Z,46.33
2019-05-01T21:59:51.661Z,37.25
2019-05-01T22:02:18.594Z,36.33
2019-05-01T22:04:45.417Z,35.98
2019-05-01T22:07:12.635Z,38.28
2019-05-01T22:09:39.469Z,34.95
2019-05-01T22:12:08.195Z,42.33
2019-05-01T22:14:39.588Z,35.28
2019-05-01T22:17:08.327Z,29.27
2019-05-01T22:19:36.257Z,29.48
2019-05-01T22:22:11.050Z,29.77
2019-05-01T22:24:54.642Z,23.05
2019-05-01T22:27:23.398Z,28.70
2019-05-01T22:30:05.653Z,26.50
2019-05-01T22:32:34.085Z,23.55
2019-05-01T22:35:03.020Z,18.35
2019-05-01T22:37:30.177Z,19.07
2019-05-01T22:39:58.941Z,9.53
2019-05-01T22:42:25.935Z,15.48
2019-05-01T22:44:52.885Z,10.55
2019-05-01T22:47:19.888Z,11.05
2019-05-01T22:49:46.736Z,13.08
2019-05-01T22:52:13.664Z,13.25
2019-05-01T22:54:44.998Z,10.05
2019-05-01T22:57:10.545Z,9.95
2019-05-01T22:59:37.878Z,9.43
2019-05-01T23:04:59.716Z,10.80
2019-05-01T23:07:46.499Z,10.35
2019-05-01T23:10:13.519Z,8.33
2019-05-01T23:12:40.585Z,9.23
2019-05-01T23:15:09.334Z,7.75
2019-05-01T23:17:39.604Z,8.33
2019-05-01T23:20:08.448Z,10.68
2019-05-01T23:22:35.366Z,6.72
2019-05-01T23:25:02.201Z,6.90
2019-05-01T23:27:30.666Z,9.43
2019-05-01T23:29:57.944Z,7.85
2019-05-01T23:32:24.846Z,8.10
2019-05-01T23:34:51.915Z,6.83
2019-05-01T23:37:38.504Z,9.98
2019-05-01T23:40:05.851Z,11.53
2019-05-01T23:42:32.802Z,12.28
2019-05-01T23:44:59.667Z,11.55
2019-05-01T23:47:26.612Z,11.25
2019-05-01T23:49:53.910Z,9.88
2019-05-01T23:52:20.826Z,9.53
2019-05-01T23:54:47.823Z,10.58
2019-05-01T23:57:18.446Z,9.93
2019-05-01T23:59:43.853Z,18.70
